createdAt,value
2018-02-18T00:02:01.789Z,-1.30
2018-02-18T00:04:28.159Z,-1.20
2018-02-18T00:06:54.393Z,-1.30
2018-02-18T00:09:20.569Z,-1.30
2018-02-18T00:11:47.459Z,-1.30
2018-02-18T00:14:15.555Z,-1.30
2018-02-18T00:16:42.566Z,-1.30
2018-02-18T00:19:08.790Z,-1.40
2018-02-18T00:21:34.988Z,-1.40
2018-02-18T00:24:01.195Z,-1.40
2018-02-18T00:26:27.612Z,-1.30
2018-02-18T00:28:53.784Z,-1.40
2018-02-18T00:31:20.054Z,-1.40
2018-02-18T00:33:46.213Z,-1.40
2018-02-18T00:36:12.444Z,-1.30
2018-02-18T00:38:38.627Z,-1.30
2018-02-18T00:41:04.849Z,-1.40
2018-02-18T00:43:31.034Z,-1.40
2018-02-18T00:45:57.304Z,-1.50
2018-02-18T00:48:23.495Z,-1.50
2018-02-18T00:50:49.747Z,-1.50
2018-02-18T00:53:15.958Z,-1.50
2018-02-18T00:55:42.173Z,-1.50
2018-02-18T00:58:09.147Z,-1.50
2018-02-18T01:00:35.548Z,-1.50
2018-02-18T01:03:01.762Z,-1.50
2018-02-18T01:05:28.011Z,-1.50
2018-02-18T01:07:54.429Z,-1.60
2018-02-18T01:10:20.720Z,-1.60
2018-02-18T01:12:46.954Z,-1.60
2018-02-18T01:15:13.407Z,-1.60
2018-02-18T01:17:39.629Z,-1.60
2018-02-18T01:20:05.830Z,-1.60
2018-02-18T01:22:32.150Z,-1.60
2018-02-18T01:24:58.430Z,-1.60
2018-02-18T01:27:24.684Z,-1.70
2018-02-18T01:29:50.989Z,-1.60
2018-02-18T01:32:17.210Z,-1.70
2018-02-18T01:34:43.444Z,-1.70
2018-02-18T01:37:09.845Z,-1.70
2018-02-18T01:39:36.069Z,-1.80
2018-02-18T01:42:03.051Z,-1.90
2018-02-18T01:44:29.287Z,-1.90
2018-02-18T01:46:55.596Z,-1.80
2018-02-18T01:49:21.844Z,-1.80
2018-02-18T01:51:48.028Z,-1.90
2018-02-18T01:54:14.341Z,-1.80
2018-02-18T01:56:40.545Z,-1.80
2018-02-18T01:59:06.797Z,-1.80
2018-02-18T02:01:34.577Z,-1.90
2018-02-18T02:04:01.657Z,-2.00
2018-02-18T02:06:27.977Z,-2.00
2018-02-18T02:08:54.933Z,-2.00
2018-02-18T02:11:21.992Z,-1.90
2018-02-18T02:13:49.072Z,-2.00
2018-02-18T02:16:15.290Z,-2.00
2018-02-18T02:18:42.220Z,-2.00
2018-02-18T02:21:08.482Z,-2.00
2018-02-18T02:23:35.444Z,-2.00
2018-02-18T02:26:02.396Z,-2.10
2018-02-18T02:28:28.608Z,-2.10
2018-02-18T02:30:54.985Z,-2.10
2018-02-18T02:33:21.233Z,-2.10
2018-02-18T02:35:47.437Z,-2.10
2018-02-18T02:38:13.947Z,-2.00
2018-02-18T02:40:40.120Z,-2.00
2018-02-18T02:43:06.356Z,-2.10
2018-02-18T02:45:33.730Z,-2.10
2018-02-18T02:47:59.931Z,-2.10
2018-02-18T02:50:26.145Z,-2.10
2018-02-18T02:52:53.078Z,-2.20
2018-02-18T02:55:19.434Z,-2.20
2018-02-18T02:57:45.621Z,-2.10
2018-02-18T03:00:11.824Z,-2.20
2018-02-18T03:02:38.198Z,-2.20
2018-02-18T03:05:04.372Z,-2.20
2018-02-18T03:07:30.583Z,-2.20
2018-02-18T03:09:57.104Z,-2.20
2018-02-18T03:12:23.336Z,-2.10
2018-02-18T03:14:49.517Z,-2.20
2018-02-18T03:17:16.020Z,-2.20
2018-02-18T03:19:42.229Z,-2.20
2018-02-18T03:22:08.411Z,-2.20
2018-02-18T03:24:35.322Z,-2.30
2018-02-18T03:27:01.528Z,-2.30
2018-02-18T03:29:27.836Z,-2.30
2018-02-18T03:31:54.344Z,-2.40
2018-02-18T03:34:20.592Z,-2.40
2018-02-18T03:36:47.588Z,-2.30
2018-02-18T03:39:13.825Z,-2.30
2018-02-18T03:41:40.215Z,-2.30
2018-02-18T03:44:06.432Z,-2.40
2018-02-18T03:46:33.454Z,-2.50
2018-02-18T03:49:00.745Z,-2.50
2018-02-18T03:51:27.844Z,-2.50
2018-02-18T03:53:54.116Z,-2.50
2018-02-18T03:56:20.330Z,-2.50
2018-02-18T03:58:46.713Z,-2.50
2018-02-18T04:01:12.972Z,-2.50
2018-02-18T04:03:39.179Z,-2.50
2018-02-18T04:06:05.985Z,-2.50
2018-02-18T04:08:33.153Z,-2.50
2018-02-18T04:10:59.376Z,-2.50
2018-02-18T04:13:25.597Z,-2.50
2018-02-18T04:15:53.025Z,-2.50
2018-02-18T04:18:19.256Z,-2.50
2018-02-18T04:20:45.441Z,-2.50
2018-02-18T04:23:11.709Z,-2.50
2018-02-18T04:25:37.885Z,-2.60
2018-02-18T04:28:04.125Z,-2.60
2018-02-18T04:30:30.419Z,-2.70
2018-02-18T04:32:56.658Z,-2.70
2018-02-18T04:35:23.602Z,-2.60
2018-02-18T04:37:49.866Z,-2.60
2018-02-18T04:40:16.531Z,-2.60
2018-02-18T04:42:42.781Z,-2.60
2018-02-18T04:45:09.745Z,-2.70
2018-02-18T04:47:36.113Z,-2.70
2018-02-18T04:50:02.329Z,-2.70
2018-02-18T04:52:28.545Z,-2.70
2018-02-18T04:54:55.489Z,-2.80
2018-02-18T04:57:21.968Z,-2.80
2018-02-18T04:59:48.358Z,-2.80
2018-02-18T05:02:14.556Z,-2.70
2018-02-18T05:04:41.607Z,-2.70
2018-02-18T05:07:10.373Z,-2.70
2018-02-18T05:09:36.608Z,-2.70
2018-02-18T05:12:02.883Z,-2.80
2018-02-18T05:14:29.097Z,-2.80
2018-02-18T05:16:55.306Z,-2.80
2018-02-18T05:19:21.541Z,-2.80
2018-02-18T05:21:47.941Z,-2.80
2018-02-18T05:24:14.381Z,-2.80
2018-02-18T05:26:40.620Z,-2.80
2018-02-18T05:29:06.832Z,-2.80
2018-02-18T05:31:33.404Z,-2.80
2018-02-18T05:33:59.665Z,-2.80
2018-02-18T05:36:25.848Z,-2.80
2018-02-18T05:38:52.261Z,-2.80
2018-02-18T05:41:19.218Z,-2.80
2018-02-18T05:43:45.456Z,-2.80
2018-02-18T05:46:12.665Z,-2.80
2018-02-18T05:48:39.112Z,-2.80
2018-02-18T05:51:05.361Z,-2.80
2018-02-18T05:53:32.342Z,-2.80
2018-02-18T05:55:58.695Z,-2.80
2018-02-18T05:58:25.698Z,-2.80
2018-02-18T06:00:51.889Z,-2.80
2018-02-18T06:03:18.177Z,-2.80
2018-02-18T06:05:44.529Z,-2.80
2018-02-18T06:08:10.767Z,-2.80
2018-02-18T06:10:36.975Z,-2.80
2018-02-18T06:13:03.499Z,-2.90
2018-02-18T06:15:29.679Z,-3.00
2018-02-18T06:17:55.884Z,-2.90
2018-02-18T06:20:22.242Z,-2.90
2018-02-18T06:22:48.492Z,-3.00
2018-02-18T06:25:15.524Z,-3.00
2018-02-18T06:27:41.944Z,-3.00
2018-02-18T06:30:08.147Z,-2.90
2018-02-18T06:32:35.626Z,-3.00
2018-02-18T06:35:03.936Z,-3.00
2018-02-18T06:37:33.650Z,-3.00
2018-02-18T06:40:00.900Z,-3.10
2018-02-18T06:42:27.176Z,-3.00
2018-02-18T06:44:54.546Z,-3.00
2018-02-18T06:47:20.745Z,-3.00
2018-02-18T06:49:47.698Z,-3.00
2018-02-18T06:52:16.060Z,-3.00
2018-02-18T06:54:42.454Z,-3.00
2018-02-18T06:57:08.864Z,-2.40
2018-02-18T06:59:35.197Z,-2.50
2018-02-18T07:02:01.502Z,-2.30
2018-02-18T07:04:27.849Z,-2.20
2018-02-18T07:06:54.329Z,-1.90
2018-02-18T07:09:20.589Z,-1.60
2018-02-18T07:11:47.067Z,-1.60
2018-02-18T07:14:13.337Z,-1.50
2018-02-18T07:16:39.636Z,-1.30
2018-02-18T07:19:06.004Z,-1.60
2018-02-18T07:21:32.643Z,-1.70
2018-02-18T07:24:00.006Z,-1.80
2018-02-18T07:26:26.257Z,-1.90
2018-02-18T07:28:52.552Z,-1.90
2018-02-18T07:31:18.767Z,-1.90
2018-02-18T07:33:44.955Z,-1.90
2018-02-18T07:36:11.366Z,-1.80
2018-02-18T07:38:37.565Z,-1.80
2018-02-18T07:41:03.769Z,-1.80
2018-02-18T07:43:30.268Z,-1.70
2018-02-18T07:45:56.468Z,-1.70
2018-02-18T07:48:22.689Z,-1.60
2018-02-18T07:50:49.125Z,-1.50
2018-02-18T07:53:15.372Z,-1.40
2018-02-18T07:55:41.581Z,-1.40
2018-02-18T07:58:08.614Z,-1.40
2018-02-18T08:00:34.808Z,-1.30
2018-02-18T08:03:01.044Z,-1.20
2018-02-18T08:05:27.280Z,-1.20
2018-02-18T08:07:53.529Z,-1.10
2018-02-18T08:10:19.718Z,-1.10
2018-02-18T08:12:46.232Z,-1.00
2018-02-18T08:15:12.549Z,-0.90
2018-02-18T08:17:38.841Z,-0.90
2018-02-18T08:20:05.768Z,-0.80
2018-02-18T08:22:33.674Z,-0.80
2018-02-18T08:24:59.973Z,-0.70
2018-02-18T08:27:26.163Z,-0.60
2018-02-18T08:29:52.412Z,-0.60
2018-02-18T08:32:18.895Z,-0.50
2018-02-18T08:34:45.190Z,-0.40
2018-02-18T08:37:11.937Z,-0.40
2018-02-18T08:39:39.043Z,-0.30
2018-02-18T08:42:05.294Z,-0.30
2018-02-18T08:44:31.559Z,-0.20
2018-02-18T08:46:57.963Z,-0.10
2018-02-18T08:49:24.153Z,-0.10
2018-02-18T08:51:50.325Z,0.00
2018-02-18T08:54:17.305Z,0.00
2018-02-18T08:56:43.764Z,0.00
2018-02-18T08:59:09.960Z,0.10
2018-02-18T09:01:37.075Z,0.20
2018-02-18T09:04:03.526Z,0.20
2018-02-18T09:06:29.769Z,0.20
2018-02-18T09:08:55.991Z,0.30
2018-02-18T09:11:22.402Z,0.40
2018-02-18T09:13:48.799Z,0.50
2018-02-18T09:16:15.001Z,0.50
2018-02-18T09:18:41.217Z,0.60
2018-02-18T09:21:07.504Z,0.70
2018-02-18T09:23:33.689Z,0.70
2018-02-18T09:26:00.038Z,0.70
2018-02-18T09:28:27.653Z,0.80
2018-02-18T09:30:53.955Z,0.80
2018-02-18T09:33:21.132Z,1.00
2018-02-18T09:35:47.427Z,1.00
2018-02-18T09:38:13.868Z,1.10
2018-02-18T09:40:40.086Z,1.10
2018-02-18T09:43:06.349Z,1.20
2018-02-18T09:45:33.478Z,1.20
2018-02-18T09:47:59.651Z,1.30
2018-02-18T09:50:25.844Z,1.40
2018-02-18T09:52:52.192Z,1.40
2018-02-18T09:55:18.394Z,1.40
2018-02-18T09:57:44.550Z,1.50
2018-02-18T10:00:11.485Z,1.60
2018-02-18T10:02:37.807Z,1.60
2018-02-18T10:05:04.008Z,1.70
2018-02-18T10:07:30.196Z,1.70
2018-02-18T10:09:56.527Z,1.80
2018-02-18T10:12:22.730Z,1.90
2018-02-18T10:14:48.997Z,2.00
2018-02-18T10:17:15.638Z,2.00
2018-02-18T10:19:41.835Z,2.10
2018-02-18T10:22:08.027Z,2.10
2018-02-18T10:24:35.478Z,2.20
2018-02-18T10:27:01.693Z,2.30
2018-02-18T10:29:29.790Z,2.30
2018-02-18T10:31:56.004Z,2.40
2018-02-18T10:34:22.669Z,2.50
2018-02-18T10:36:48.953Z,2.50
2018-02-18T10:39:15.189Z,2.60
2018-02-18T10:41:41.509Z,2.70
2018-02-18T10:44:08.481Z,2.70
2018-02-18T10:46:34.733Z,2.80
2018-02-18T10:49:02.738Z,2.90
2018-02-18T10:51:31.417Z,3.10
2018-02-18T10:53:58.184Z,3.00
2018-02-18T10:56:24.555Z,3.20
2018-02-18T10:58:51.578Z,3.30
2018-02-18T11:01:18.568Z,3.50
2018-02-18T11:03:45.313Z,3.50
2018-02-18T11:06:11.721Z,3.60
2018-02-18T11:08:38.021Z,3.70
2018-02-18T11:11:04.224Z,3.80
2018-02-18T11:13:30.844Z,3.90
2018-02-18T11:15:57.315Z,4.00
2018-02-18T11:18:23.551Z,4.20
2018-02-18T11:20:49.897Z,4.30
2018-02-18T11:23:16.282Z,4.40
2018-02-18T11:25:42.972Z,4.50
2018-02-18T11:28:09.878Z,4.60
2018-02-18T11:30:37.345Z,4.60
2018-02-18T11:33:03.711Z,4.70
2018-02-18T11:35:33.112Z,5.00
2018-02-18T11:37:59.264Z,5.00
2018-02-18T11:40:25.801Z,5.10
2018-02-18T11:42:52.343Z,5.20
2018-02-18T11:45:18.589Z,5.30
2018-02-18T11:47:44.782Z,5.40
2018-02-18T11:50:11.121Z,5.40
2018-02-18T11:52:37.397Z,5.60
2018-02-18T11:55:03.579Z,5.80
2018-02-18T11:57:29.981Z,6.10
2018-02-18T11:59:57.077Z,6.40
2018-02-18T12:02:24.081Z,6.60
2018-02-18T12:04:50.334Z,6.60
2018-02-18T12:07:16.564Z,7.00
2018-02-18T12:09:42.979Z,7.20
2018-02-18T12:12:09.156Z,7.30
2018-02-18T12:14:35.833Z,7.50
2018-02-18T12:17:02.016Z,7.80
2018-02-18T12:19:29.092Z,7.90
2018-02-18T12:21:55.682Z,7.80
2018-02-18T12:24:21.893Z,8.50
2018-02-18T12:26:48.075Z,8.50
2018-02-18T12:29:14.473Z,9.00
2018-02-18T12:31:40.929Z,9.40
2018-02-18T12:34:07.220Z,9.50
2018-02-18T12:36:33.418Z,9.80
2018-02-18T12:38:59.840Z,9.90
2018-02-18T12:41:26.031Z,10.20
2018-02-18T12:43:52.240Z,10.50
2018-02-18T12:46:19.417Z,10.20
2018-02-18T12:48:45.613Z,10.60
2018-02-18T12:51:11.841Z,10.60
2018-02-18T12:53:38.080Z,10.60
2018-02-18T12:56:04.316Z,10.50
2018-02-18T12:58:30.625Z,10.20
2018-02-18T13:00:56.930Z,9.80
2018-02-18T13:03:23.307Z,9.70
2018-02-18T13:05:49.537Z,10.10
2018-02-18T13:08:15.806Z,10.30
2018-02-18T13:10:42.019Z,10.20
2018-02-18T13:13:08.219Z,10.20
2018-02-18T13:15:34.652Z,10.20
2018-02-18T13:18:00.853Z,10.30
2018-02-18T13:20:27.078Z,10.20
2018-02-18T13:22:53.469Z,9.90
2018-02-18T13:25:19.675Z,10.00
2018-02-18T13:27:46.001Z,9.80
2018-02-18T13:30:12.500Z,9.60
2018-02-18T13:32:40.800Z,9.20
2018-02-18T13:35:06.989Z,9.10
2018-02-18T13:37:33.181Z,9.10
2018-02-18T13:39:59.569Z,9.10
2018-02-18T13:42:25.759Z,8.90
2018-02-18T13:44:52.011Z,9.00
2018-02-18T13:47:18.297Z,8.80
2018-02-18T13:49:44.493Z,8.50
2018-02-18T13:52:10.689Z,8.40
2018-02-18T13:54:36.909Z,8.60
2018-02-18T13:57:03.110Z,8.50
2018-02-18T13:59:29.351Z,8.30
2018-02-18T14:01:55.559Z,8.30
2018-02-18T14:04:21.815Z,8.20
2018-02-18T14:06:48.155Z,8.30
2018-02-18T14:09:14.357Z,8.20
2018-02-18T14:11:40.583Z,8.10
2018-02-18T14:14:06.788Z,8.10
2018-02-18T14:16:33.282Z,8.00
2018-02-18T14:18:59.784Z,8.00
2018-02-18T14:21:25.981Z,8.00
2018-02-18T14:23:52.212Z,7.80
2018-02-18T14:26:19.496Z,7.90
2018-02-18T14:28:45.724Z,8.10
2018-02-18T14:31:11.954Z,8.20
2018-02-18T14:33:38.914Z,8.10
2018-02-18T14:36:05.423Z,8.10
2018-02-18T14:38:31.690Z,8.10
2018-02-18T14:40:58.611Z,7.80
2018-02-18T14:43:37.026Z,7.80
2018-02-18T14:46:15.403Z,7.90
2018-02-18T14:48:54.643Z,8.20
2018-02-18T14:51:33.107Z,8.10
2018-02-18T14:54:11.616Z,8.10
2018-02-18T14:56:50.748Z,8.20
2018-02-18T14:59:17.007Z,8.10
2018-02-18T15:01:43.196Z,8.20
2018-02-18T15:04:09.822Z,8.30
2018-02-18T15:06:36.021Z,8.20
2018-02-18T15:09:02.998Z,8.20
2018-02-18T15:11:29.244Z,8.20
2018-02-18T15:13:56.636Z,8.40
2018-02-18T15:16:22.871Z,8.40
2018-02-18T15:18:49.068Z,8.60
2018-02-18T15:21:16.210Z,8.50
2018-02-18T15:23:42.388Z,8.50
2018-02-18T15:26:08.580Z,8.60
2018-02-18T15:28:34.881Z,8.60
2018-02-18T15:31:01.112Z,8.70
2018-02-18T15:33:27.276Z,8.60
2018-02-18T15:35:54.399Z,8.60
2018-02-18T15:38:21.641Z,8.50
2018-02-18T15:40:47.885Z,8.50
2018-02-18T15:43:18.760Z,8.70
2018-02-18T15:45:45.721Z,8.60
2018-02-18T15:48:12.656Z,8.50
2018-02-18T15:50:39.640Z,8.40
2018-02-18T15:53:06.077Z,8.30
2018-02-18T15:55:35.142Z,8.40
2018-02-18T15:58:01.372Z,8.20
2018-02-18T16:00:27.633Z,8.20
2018-02-18T16:02:53.922Z,8.00
2018-02-18T16:05:21.078Z,7.60
2018-02-18T16:07:48.027Z,7.50
2018-02-18T16:10:14.213Z,7.50
2018-02-18T16:12:40.561Z,7.40
2018-02-18T16:15:06.772Z,7.20
2018-02-18T16:17:32.985Z,7.00
2018-02-18T16:19:59.380Z,7.00
2018-02-18T16:22:25.618Z,6.90
2018-02-18T16:24:51.796Z,6.60
2018-02-18T16:27:24.776Z,6.60
2018-02-18T16:29:50.997Z,6.40
2018-02-18T16:32:17.258Z,6.30
2018-02-18T16:34:43.548Z,6.30
2018-02-18T16:37:10.535Z,6.00
2018-02-18T16:39:36.744Z,6.00
2018-02-18T16:42:03.746Z,5.80
2018-02-18T16:44:31.409Z,5.60
2018-02-18T16:46:57.645Z,5.60
2018-02-18T16:49:23.852Z,5.60
2018-02-18T16:51:50.656Z,5.60
2018-02-18T16:54:17.679Z,5.40
2018-02-18T16:56:44.661Z,5.20
2018-02-18T16:59:10.856Z,5.20
2018-02-18T17:01:37.149Z,5.20
2018-02-18T17:04:03.379Z,5.10
2018-02-18T17:06:29.594Z,5.10
2018-02-18T17:08:56.092Z,5.00
2018-02-18T17:11:22.321Z,4.90
2018-02-18T17:13:48.530Z,4.80
2018-02-18T17:16:15.479Z,4.70
2018-02-18T17:18:41.719Z,4.60
2018-02-18T17:21:08.725Z,4.50
2018-02-18T17:23:34.904Z,4.50
2018-02-18T17:26:01.173Z,4.40
2018-02-18T17:28:28.105Z,4.30
2018-02-18T17:30:54.350Z,4.30
2018-02-18T17:33:20.714Z,4.20
2018-02-18T17:35:47.783Z,4.10
2018-02-18T17:38:13.985Z,4.10
2018-02-18T17:40:40.221Z,4.00
2018-02-18T17:43:07.219Z,3.90
2018-02-18T17:45:34.183Z,3.80
2018-02-18T17:48:01.149Z,3.70
2018-02-18T17:50:33.391Z,3.70
2018-02-18T17:52:59.640Z,3.70
2018-02-18T17:55:25.841Z,3.60
2018-02-18T17:57:52.385Z,3.60
2018-02-18T18:00:19.077Z,3.50
2018-02-18T18:02:46.066Z,3.40
2018-02-18T18:05:12.571Z,3.40
2018-02-18T18:07:38.956Z,3.40
2018-02-18T18:10:05.906Z,3.30
2018-02-18T18:12:32.829Z,3.20
2018-02-18T18:14:59.016Z,3.20
2018-02-18T18:17:25.217Z,3.20
2018-02-18T18:19:51.416Z,3.10
2018-02-18T18:22:17.728Z,3.10
2018-02-18T18:24:43.948Z,3.10
2018-02-18T18:27:11.205Z,3.00
2018-02-18T18:29:37.497Z,2.90
2018-02-18T18:32:03.960Z,2.80
2018-02-18T18:34:30.160Z,2.80
2018-02-18T18:36:57.109Z,2.80
2018-02-18T18:39:23.380Z,2.70
2018-02-18T18:41:49.672Z,2.70
2018-02-18T18:44:19.401Z,2.70
2018-02-18T18:46:45.692Z,2.70
2018-02-18T18:49:11.894Z,2.60
2018-02-18T18:51:38.841Z,2.60
2018-02-18T18:54:05.252Z,2.60
2018-02-18T18:56:33.553Z,2.60
2018-02-18T18:58:59.819Z,2.60
2018-02-18T19:01:27.168Z,2.50
2018-02-18T19:03:53.556Z,2.50
2018-02-18T19:06:20.500Z,2.50
2018-02-18T19:08:46.939Z,2.40
2018-02-18T19:11:13.334Z,2.40
2018-02-18T19:13:39.525Z,2.40
2018-02-18T19:16:06.178Z,2.40
2018-02-18T19:18:32.406Z,2.30
2018-02-18T19:20:58.633Z,2.30
2018-02-18T19:23:25.889Z,2.20
2018-02-18T19:25:52.165Z,2.20
2018-02-18T19:28:18.731Z,2.10
2018-02-18T19:30:45.718Z,2.10
2018-02-18T19:33:11.967Z,2.10
2018-02-18T19:35:38.190Z,2.00
2018-02-18T19:38:04.550Z,2.00
2018-02-18T19:40:30.852Z,2.00
2018-02-18T19:42:57.101Z,1.90
2018-02-18T19:45:23.478Z,1.80
2018-02-18T19:47:49.729Z,1.80
2018-02-18T19:50:15.916Z,1.70
2018-02-18T19:52:43.375Z,1.60
2018-02-18T19:55:09.556Z,1.60
2018-02-18T19:57:35.763Z,1.60
2018-02-18T20:00:02.155Z,1.60
2018-02-18T20:02:29.718Z,1.60
2018-02-18T20:04:56.158Z,1.50
2018-02-18T20:07:22.453Z,1.50
2018-02-18T20:09:49.721Z,1.40
2018-02-18T20:12:16.215Z,1.30
2018-02-18T20:14:42.439Z,1.30
2018-02-18T20:17:09.390Z,1.20
2018-02-18T20:19:35.794Z,1.20
2018-02-18T20:22:02.038Z,1.20
2018-02-18T20:24:28.373Z,1.20
2018-02-18T20:26:55.247Z,1.20
2018-02-18T20:29:22.607Z,1.20
2018-02-18T20:31:48.831Z,1.10
2018-02-18T20:34:15.053Z,1.10
2018-02-18T20:36:41.896Z,1.10
2018-02-18T20:39:08.272Z,1.10
2018-02-18T20:41:34.587Z,0.90
2018-02-18T20:44:01.310Z,0.80
2018-02-18T20:46:27.632Z,0.50
2018-02-18T20:48:53.861Z,0.40
2018-02-18T20:51:20.301Z,0.40
2018-02-18T20:53:46.877Z,0.40
2018-02-18T20:56:13.142Z,0.30
2018-02-18T20:58:39.491Z,0.30
2018-02-18T21:01:06.537Z,0.00
2018-02-18T21:03:32.900Z,0.00
2018-02-18T21:06:02.332Z,-0.10
2018-02-18T21:08:31.634Z,0.00
2018-02-18T21:10:58.043Z,0.00
2018-02-18T21:13:37.359Z,0.00
2018-02-18T21:16:03.621Z,0.10
2018-02-18T21:18:29.850Z,0.10
2018-02-18T21:20:56.044Z,0.20
2018-02-18T21:23:23.128Z,0.30
2018-02-18T21:25:49.312Z,0.30
2018-02-18T21:28:15.515Z,0.30
2018-02-18T21:30:42.080Z,0.40
2018-02-18T21:33:08.274Z,0.40
2018-02-18T21:35:35.228Z,0.50
2018-02-18T21:38:02.479Z,0.50
2018-02-18T21:40:30.854Z,0.60
2018-02-18T21:42:57.225Z,0.60
2018-02-18T21:45:23.431Z,0.60
2018-02-18T21:47:49.637Z,0.60
2018-02-18T21:50:16.117Z,0.60
2018-02-18T21:52:42.312Z,0.60
2018-02-18T21:55:09.228Z,0.70
2018-02-18T21:57:35.523Z,0.70
2018-02-18T22:00:01.701Z,0.70
2018-02-18T22:02:27.910Z,0.70
2018-02-18T22:04:54.281Z,0.70
2018-02-18T22:07:20.460Z,0.80
2018-02-18T22:09:47.364Z,0.80
2018-02-18T22:12:13.575Z,0.80
2018-02-18T22:14:39.796Z,0.90
2018-02-18T22:17:06.773Z,0.90
2018-02-18T22:19:33.809Z,0.90
2018-02-18T22:22:00.133Z,0.90
2018-02-18T22:24:26.335Z,0.90
2018-02-18T22:26:52.529Z,1.00
2018-02-18T22:29:18.946Z,0.90
2018-02-18T22:31:45.197Z,0.90
2018-02-18T22:34:11.411Z,1.00
2018-02-18T22:36:37.817Z,1.00
2018-02-18T22:39:05.098Z,1.00
2018-02-18T22:41:32.016Z,1.00
2018-02-18T22:43:58.287Z,1.00
2018-02-18T22:46:24.705Z,1.10
2018-02-18T22:48:50.921Z,1.10
2018-02-18T22:51:17.120Z,1.10
2018-02-18T22:53:43.540Z,1.10
2018-02-18T22:56:09.813Z,1.10
2018-02-18T22:58:36.895Z,1.10
2018-02-18T23:01:03.092Z,1.10
2018-02-18T23:03:29.535Z,1.00
2018-02-18T23:05:55.711Z,0.90
2018-02-18T23:08:21.920Z,1.00
2018-02-18T23:10:48.633Z,1.10
2018-02-18T23:13:14.850Z,1.10
2018-02-18T23:15:41.008Z,1.10
2018-02-18T23:18:07.378Z,1.10
2018-02-18T23:20:45.684Z,1.10
2018-02-18T23:23:12.052Z,1.10
2018-02-18T23:25:38.220Z,1.10
2018-02-18T23:28:05.155Z,1.00
2018-02-18T23:30:32.453Z,1.00
2018-02-18T23:32:58.860Z,1.10
2018-02-18T23:35:25.046Z,1.10
2018-02-18T23:37:51.229Z,1.00
2018-02-18T23:40:17.705Z,1.00
2018-02-18T23:42:44.767Z,0.90
2018-02-18T23:45:11.715Z,0.80
2018-02-18T23:47:37.928Z,0.80
2018-02-18T23:50:04.419Z,0.90
2018-02-18T23:52:30.629Z,0.90
2018-02-18T23:54:56.800Z,1.00
2018-02-18T23:57:23.856Z,1.10
2018-02-18T23:59:50.168Z,1.10
